createdAt,value
2022-09-28T00:07:42.113Z,99.99
2022-09-28T00:17:42.267Z,99.99
2022-09-28T00:27:42.480Z,99.99
2022-09-28T00:37:42.653Z,99.33
2022-09-28T00:47:42.888Z,99.99
2022-09-28T00:57:43.069Z,99.99
2022-09-28T01:07:43.272Z,99.99
2022-09-28T01:17:43.431Z,99.99
2022-09-28T01:27:43.638Z,99.99
2022-09-28T01:37:43.807Z,98.42
2022-09-28T01:47:44.032Z,96.88
2022-09-28T01:57:44.142Z,96.53
2022-09-28T02:07:45.446Z,96.28
2022-09-28T02:17:44.478Z,95.97
2022-09-28T02:27:44.665Z,96.38
2022-09-28T02:37:44.811Z,96.79
2022-09-28T02:47:45.009Z,95.15
2022-09-28T02:57:45.274Z,94.39
2022-09-28T03:07:45.348Z,93.88
2022-09-28T03:17:45.475Z,94.08
2022-09-28T03:27:45.654Z,93.12
2022-09-28T03:37:45.793Z,93.01
2022-09-28T03:47:46.002Z,94.95
2022-09-28T03:57:46.151Z,95.66
2022-09-28T04:07:46.623Z,95.97
2022-09-28T04:17:46.424Z,96.79
2022-09-28T04:27:46.603Z,97.09
2022-09-28T04:37:46.744Z,98.68
2022-09-28T04:47:46.897Z,99.99
2022-09-28T04:57:47.052Z,99.99
2022-09-28T05:07:47.259Z,99.99
2022-09-28T05:17:47.626Z,99.99
2022-09-28T05:27:47.595Z,99.99
2022-09-28T05:37:47.768Z,99.99
2022-09-28T05:47:47.989Z,99.99
2022-09-28T05:57:48.159Z,99.99
2022-09-28T06:07:48.377Z,99.99
2022-09-28T06:17:48.531Z,99.99
2022-09-28T06:27:49.009Z,99.99
2022-09-28T06:37:48.925Z,99.99
2022-09-28T06:47:49.029Z,99.99
2022-09-28T06:57:49.189Z,99.99
2022-09-28T07:07:49.400Z,99.99
2022-09-28T07:18:00.102Z,99.99
2022-09-28T07:27:50.769Z,99.99
2022-09-28T07:37:49.954Z,99.99
2022-09-28T07:47:50.179Z,99.99
2022-09-28T07:57:50.333Z,99.99
2022-09-28T08:07:50.535Z,99.99
2022-09-28T08:17:50.617Z,99.99
2022-09-28T08:27:50.824Z,99.99
2022-09-28T08:37:54.711Z,99.99
2022-09-28T08:47:51.196Z,99.99
2022-09-28T08:57:51.331Z,99.96
2022-09-28T09:07:51.510Z,99.87
2022-09-28T09:17:51.638Z,98.08
2022-09-28T09:27:51.820Z,98.10
2022-09-28T09:37:55.286Z,98.79
2022-09-28T09:47:53.188Z,98.19
2022-09-28T09:57:52.339Z,95.12
2022-09-28T10:07:52.546Z,94.27
2022-09-28T10:17:52.697Z,92.02
2022-09-28T10:27:52.876Z,89.39
2022-09-28T10:37:53.019Z,86.83
2022-09-28T10:47:53.230Z,85.16
2022-09-28T10:57:53.351Z,82.65
2022-09-28T11:07:53.535Z,84.42
2022-09-28T11:17:53.674Z,86.63
2022-09-28T11:27:53.906Z,85.49
2022-09-28T11:37:54.057Z,81.48
2022-09-28T11:47:54.252Z,80.13
2022-09-28T11:57:54.387Z,78.30
2022-09-28T12:07:54.604Z,79.17
2022-09-28T12:17:54.809Z,78.53
2022-09-28T12:27:54.871Z,76.62
2022-09-28T12:37:55.252Z,78.83
2022-09-28T12:47:55.251Z,77.81
2022-09-28T12:57:55.398Z,75.74
2022-09-28T13:07:55.803Z,79.03
2022-09-28T13:17:55.753Z,75.27
2022-09-28T13:27:56.052Z,75.57
2022-09-28T13:37:56.306Z,74.82
2022-09-28T13:47:56.279Z,74.08
2022-09-28T13:57:56.565Z,75.13
2022-09-28T14:07:57.335Z,75.47
2022-09-28T14:17:57.114Z,74.82
2022-09-28T14:27:57.115Z,75.27
2022-09-28T14:37:57.184Z,76.73
2022-09-28T14:47:57.671Z,77.26
2022-09-28T14:57:57.479Z,76.35
2022-09-28T15:07:57.920Z,72.78
2022-09-28T15:17:58.171Z,75.47
2022-09-28T15:27:58.040Z,74.04
2022-09-28T15:37:58.418Z,75.67
2022-09-28T15:47:58.416Z,77.24
2022-09-28T15:57:58.475Z,78.39
2022-09-28T16:07:58.721Z,76.09
2022-09-28T16:17:58.911Z,80.91
2022-09-28T16:27:58.867Z,82.42
2022-09-28T16:37:59.027Z,88.12
2022-09-28T16:47:59.221Z,89.68
2022-09-28T16:58:00.379Z,91.50
2022-09-28T17:07:59.612Z,91.44
2022-09-28T17:17:59.785Z,92.41
2022-09-28T17:28:00.004Z,94.20
2022-09-28T17:38:00.184Z,95.43
2022-09-28T17:48:00.402Z,95.32
2022-09-28T17:58:00.554Z,96.04
2022-09-28T18:08:01.073Z,97.83
2022-09-28T18:18:01.146Z,97.73
2022-09-28T18:28:01.400Z,98.35
2022-09-28T18:38:01.223Z,98.08
2022-09-28T18:48:01.445Z,98.19
2022-09-28T18:58:01.614Z,97.78
2022-09-28T19:08:01.853Z,98.96
2022-09-28T19:18:02.035Z,99.99
2022-09-28T19:28:02.233Z,99.99
2022-09-28T19:38:02.418Z,97.41
2022-09-28T19:48:02.643Z,95.62
2022-09-28T19:58:02.812Z,94.90
2022-09-28T20:18:03.202Z,95.87
2022-09-28T20:28:03.425Z,97.41
2022-09-28T20:38:03.640Z,97.72
2022-09-28T20:48:03.844Z,98.85
2022-09-28T20:58:04.246Z,97.92
2022-09-28T21:08:04.249Z,98.24
2022-09-28T21:18:04.415Z,98.94
2022-09-28T21:28:04.617Z,98.99
2022-09-28T21:38:04.791Z,99.09
2022-09-28T21:48:05.020Z,99.99
2022-09-28T21:58:05.195Z,99.99
2022-09-28T22:08:05.428Z,99.99
2022-09-28T22:18:05.599Z,99.99
2022-09-28T22:28:05.843Z,99.99
2022-09-28T22:38:06.101Z,99.99
2022-09-28T22:48:06.209Z,99.99
2022-09-28T22:58:06.392Z,99.99
2022-09-28T23:08:06.606Z,99.99
2022-09-28T23:18:06.773Z,99.99
2022-09-28T23:28:07.007Z,99.99
2022-09-28T23:38:07.203Z,99.99
2022-09-28T23:48:07.433Z,99.99
2022-09-28T23:58:07.628Z,99.99
